createdAt,value
2022-08-19T12:36:03.627Z,26.00
2022-08-19T12:38:33.436Z,26.70
2022-08-19T12:41:01.646Z,26.90
2022-08-19T12:43:30.698Z,26.80
2022-08-19T12:45:59.330Z,27.00
2022-08-19T13:12:14.488Z,27.50
2022-08-19T13:14:44.981Z,27.90
2022-08-19T13:17:16.739Z,27.90
2022-08-19T13:19:45.190Z,27.90
2022-08-19T13:22:15.168Z,28.00
2022-08-19T13:24:47.204Z,27.90
2022-08-19T13:27:23.793Z,28.10
2022-08-19T13:30:10.614Z,28.10
2022-08-19T13:32:56.697Z,28.00
2022-08-19T13:35:25.157Z,28.10
2022-08-19T13:37:53.478Z,28.20
2022-08-19T13:40:25.281Z,28.40
2022-08-19T13:42:56.270Z,28.50
2022-08-19T13:45:26.249Z,28.70
2022-08-19T13:47:59.138Z,28.90
2022-08-19T13:50:30.087Z,29.10
2022-08-19T13:53:13.079Z,29.00
2022-08-19T13:55:41.860Z,28.60
2022-08-19T13:58:12.790Z,28.30
2022-08-19T14:00:45.301Z,28.00
2022-08-19T14:03:13.629Z,27.90
2022-08-19T14:05:41.819Z,27.70
2022-08-19T14:08:10.559Z,27.50
2022-08-19T14:10:38.635Z,27.50
2022-08-19T14:13:06.692Z,27.30
2022-08-19T14:15:36.883Z,26.90
2022-08-19T14:18:05.271Z,26.80
2022-08-19T14:20:38.967Z,26.70
2022-08-19T14:23:07.283Z,26.80
2022-08-19T14:25:35.395Z,26.80
2022-08-19T14:28:59.985Z,26.90
2022-08-19T14:31:30.952Z,27.00
2022-08-19T14:33:59.377Z,27.20
2022-08-19T14:36:27.956Z,27.20
2022-08-19T14:38:55.967Z,27.40
2022-08-19T14:41:25.287Z,27.30
2022-08-19T14:43:54.555Z,27.70
2022-08-19T14:46:25.805Z,27.70
2022-08-19T14:48:59.839Z,27.60
2022-08-19T15:05:50.783Z,27.40
2022-08-19T15:08:19.088Z,28.80
2022-08-19T15:10:48.978Z,30.10
2022-08-19T15:13:17.415Z,31.30
2022-08-19T15:15:46.716Z,32.10
2022-08-19T15:18:14.936Z,32.50
2022-08-19T15:20:44.779Z,33.00
2022-08-19T15:23:38.378Z,33.60
2022-08-19T15:26:10.558Z,34.20
2022-08-19T15:28:44.471Z,34.60
2022-08-19T15:31:17.162Z,34.70
2022-08-19T15:33:58.830Z,34.70
2022-08-19T15:36:27.858Z,34.50
2022-08-19T15:38:57.770Z,34.10
2022-08-19T15:41:28.581Z,33.50
2022-08-19T15:43:59.960Z,32.40
2022-08-19T15:46:30.800Z,32.00
2022-08-19T15:49:00.551Z,31.20
2022-08-19T15:51:31.289Z,30.40
2022-08-19T15:54:01.340Z,30.10
2022-08-19T15:56:58.175Z,30.00
2022-08-19T15:59:47.331Z,30.20
2022-08-19T16:02:35.187Z,30.10
2022-08-19T16:05:26.096Z,30.10
2022-08-19T16:07:54.889Z,31.40
2022-08-19T16:10:26.169Z,30.90
2022-08-19T16:12:56.747Z,31.60
2022-08-19T16:15:25.829Z,31.70
2022-08-19T16:17:57.122Z,30.70
2022-08-19T16:20:27.667Z,29.90
2022-08-19T16:22:57.924Z,29.40
2022-08-19T16:25:30.165Z,29.00
2022-08-19T16:28:06.986Z,28.60
2022-08-19T16:30:38.570Z,28.30
2022-08-19T16:33:07.373Z,28.10
2022-08-19T16:35:36.186Z,28.00
2022-08-19T16:38:04.884Z,28.00
2022-08-19T16:40:34.425Z,28.80
2022-08-19T16:43:03.159Z,28.80
2022-08-19T16:45:31.720Z,29.30
2022-08-19T16:47:59.843Z,28.90
2022-08-19T16:50:46.180Z,30.00
2022-08-19T16:53:16.279Z,29.80
2022-08-19T16:55:51.044Z,29.10
2022-08-19T16:58:19.732Z,28.80
2022-08-19T17:00:48.771Z,28.50
2022-08-19T17:03:18.089Z,28.30
2022-08-19T17:05:47.224Z,28.90
2022-08-19T17:08:19.064Z,28.40
2022-08-19T17:11:14.712Z,27.80
2022-08-19T17:13:38.688Z,27.50
2022-08-19T17:16:07.064Z,27.20
2022-08-19T17:18:35.030Z,27.00
2022-08-19T17:21:03.173Z,26.80
2022-08-19T17:23:42.327Z,26.70
2022-08-19T17:26:17.265Z,26.70
2022-08-19T17:28:49.983Z,26.60
2022-08-19T17:31:20.077Z,26.50
2022-08-19T17:33:48.970Z,26.50
2022-08-19T17:36:17.858Z,26.50
2022-08-19T17:38:46.254Z,26.40
2022-08-19T17:41:15.895Z,26.40
2022-08-19T17:43:44.356Z,26.40
2022-08-19T17:46:19.826Z,26.30
2022-08-19T17:48:57.789Z,26.30
2022-08-19T17:51:40.539Z,26.30
2022-08-19T17:54:12.849Z,26.30
2022-08-19T17:56:42.687Z,26.30
2022-08-19T17:59:14.265Z,26.10
2022-08-19T18:01:53.930Z,26.00
2022-08-19T18:04:24.271Z,26.00
2022-08-19T18:06:54.309Z,26.00
2022-08-19T18:09:25.511Z,26.00
2022-08-19T18:11:57.314Z,26.10
2022-08-19T18:14:33.667Z,26.00
2022-08-19T18:17:06.356Z,26.00
2022-08-19T18:19:42.208Z,25.90
2022-08-19T18:22:12.874Z,25.90
2022-08-19T18:24:41.833Z,25.90
2022-08-19T18:27:11.281Z,25.80
2022-08-19T18:29:40.454Z,25.70
2022-08-19T18:32:18.168Z,25.80
2022-08-19T18:34:52.467Z,25.60
2022-08-19T18:37:21.020Z,25.60
2022-08-19T18:40:08.035Z,25.60
2022-08-19T18:43:02.077Z,25.60
2022-08-19T18:45:49.866Z,25.50
2022-08-19T18:48:36.645Z,25.50
2022-08-19T18:51:04.639Z,25.30
2022-08-19T18:53:38.850Z,25.30
2022-08-19T18:56:08.385Z,25.20
2022-08-19T18:58:39.398Z,25.20
2022-08-19T19:01:11.744Z,25.10
2022-08-19T19:03:45.946Z,25.00
2022-08-19T19:06:15.744Z,25.00
2022-08-19T19:08:44.356Z,24.90
2022-08-19T19:11:12.689Z,24.80
2022-08-19T19:13:46.496Z,25.00
2022-08-19T19:16:23.812Z,24.90
2022-08-19T19:18:53.129Z,24.70
2022-08-19T19:21:23.215Z,24.60
2022-08-19T19:23:52.468Z,24.60
2022-08-19T19:26:21.957Z,24.50
2022-08-19T19:28:51.621Z,24.50
2022-08-19T19:31:23.326Z,24.50
2022-08-19T19:33:51.497Z,24.60
2022-08-19T19:36:19.713Z,24.70
2022-08-19T19:38:49.087Z,24.90
2022-08-19T19:41:19.658Z,24.90
2022-08-19T19:43:56.694Z,24.80
2022-08-19T19:46:39.411Z,24.70
2022-08-19T19:49:07.370Z,24.60
2022-08-19T19:51:38.746Z,24.70
2022-08-19T19:54:07.883Z,24.60
2022-08-19T19:56:36.007Z,24.60
2022-08-19T19:59:04.686Z,24.70
2022-08-19T20:01:33.045Z,24.80
2022-08-19T20:04:04.179Z,24.90
2022-08-19T20:06:32.763Z,24.90
2022-08-19T20:09:17.563Z,25.00
2022-08-19T20:11:49.347Z,24.90
2022-08-19T20:14:23.856Z,24.70
2022-08-19T20:16:54.106Z,24.60
2022-08-19T20:19:27.768Z,24.70
2022-08-19T20:21:57.646Z,24.80
2022-08-19T20:24:29.661Z,24.90
2022-08-19T20:26:58.617Z,24.80
2022-08-19T20:29:39.094Z,24.80
2022-08-19T20:32:10.005Z,24.80
2022-08-19T20:34:40.982Z,24.70
2022-08-19T20:37:11.358Z,24.70
2022-08-19T20:39:39.676Z,24.70
2022-08-19T20:42:07.875Z,24.70
2022-08-19T20:44:36.604Z,24.70
2022-08-19T20:47:05.124Z,24.70
2022-08-19T20:49:33.932Z,24.60
2022-08-19T20:52:06.113Z,24.60
2022-08-19T20:54:34.593Z,24.50
2022-08-19T20:57:03.964Z,24.40
2022-08-19T20:59:32.262Z,24.50
2022-08-19T21:02:01.191Z,24.50
2022-08-19T21:04:29.371Z,24.50
2022-08-19T21:06:57.446Z,24.40
2022-08-19T21:09:26.853Z,24.30
2022-08-19T21:11:54.791Z,24.30
2022-08-19T21:14:23.489Z,24.30
2022-08-19T21:16:51.494Z,24.40
2022-08-19T21:19:23.723Z,24.40
2022-08-19T21:21:52.528Z,24.40
2022-08-19T21:24:20.545Z,24.40
2022-08-19T21:26:51.425Z,24.40
2022-08-19T21:29:21.151Z,24.40
2022-08-19T21:31:50.405Z,24.40
2022-08-19T21:34:18.896Z,24.30
2022-08-19T21:36:46.805Z,24.40
2022-08-19T21:39:14.835Z,24.40
2022-08-19T21:41:43.802Z,24.10
2022-08-19T21:44:13.340Z,24.00
2022-08-19T21:46:41.476Z,23.90
2022-08-19T21:49:09.959Z,23.80
2022-08-19T21:51:38.663Z,23.80
2022-08-19T21:54:06.698Z,23.80
2022-08-19T21:56:34.605Z,23.80
2022-08-19T21:59:02.516Z,23.70
2022-08-19T22:01:31.839Z,23.70
2022-08-19T22:03:59.872Z,23.80
2022-08-19T22:06:27.823Z,23.90
2022-08-19T22:08:56.264Z,24.00
2022-08-19T22:11:24.270Z,24.00
2022-08-19T22:13:56.664Z,24.10
2022-08-19T22:16:25.285Z,24.10
2022-08-19T22:18:54.793Z,24.10
2022-08-19T22:21:40.348Z,24.10
2022-08-19T22:24:10.139Z,24.10
2022-08-19T22:26:38.213Z,23.90
2022-08-19T22:29:06.287Z,23.90
2022-08-19T22:31:34.285Z,23.90
2022-08-19T22:34:05.777Z,23.90
2022-08-19T22:36:33.906Z,23.90
2022-08-19T22:39:01.892Z,23.80
2022-08-19T22:41:29.860Z,23.90
2022-08-19T22:43:57.734Z,23.80
2022-08-19T22:46:25.663Z,23.80
2022-08-19T22:49:01.077Z,23.80
2022-08-19T22:51:49.890Z,23.70
2022-08-19T22:57:00.487Z,23.80
2022-08-19T22:59:28.874Z,23.80
2022-08-19T23:01:57.298Z,23.70
2022-08-19T23:04:25.594Z,23.70
2022-08-19T23:06:55.736Z,23.70
2022-08-19T23:09:24.045Z,23.80
2022-08-19T23:11:52.567Z,23.60
2022-08-19T23:14:33.179Z,23.50
2022-08-19T23:17:01.869Z,23.60
2022-08-19T23:19:30.147Z,23.60
2022-08-19T23:22:00.475Z,23.50
2022-08-19T23:24:29.336Z,23.30
2022-08-19T23:27:16.089Z,23.10
2022-08-19T23:30:02.856Z,23.30
2022-08-19T23:32:35.464Z,23.30
2022-08-19T23:35:04.159Z,23.20
2022-08-19T23:37:33.960Z,23.30
2022-08-19T23:40:02.482Z,23.40
2022-08-19T23:42:30.835Z,23.50
2022-08-19T23:45:02.104Z,23.40
2022-08-19T23:47:32.514Z,23.40
2022-08-19T23:50:05.966Z,23.40
2022-08-19T23:52:43.287Z,23.40
2022-08-19T23:55:12.115Z,23.30
2022-08-19T23:57:40.420Z,23.30
